Time;durP1;ratioP1;P1;durP2;ratioP2;P2;SDS_P1;SDS_P2;PMS_P1;PMS_P2;Temp;Humidity;BMP_temperature;BMP_pressure;BME280_temperature;BME280_humidity;BME280_pressure;Samples;Min_cycle;Max_cycle;Signal;HPM_P1;HPM_P2
2022/07/01 00:00:56;;;;;;;;;;;;;;;20.99;71.55;100169.27;1715738;82;20294;-70
2022/07/01 00:03:22;;;;;;;;;;;;;;;20.98;71.66;100170.33;1723021;82;21206;-70
2022/07/01 00:05:48;;;;;;;;;;;;;;;21.01;71.73;100170.36;1727681;82;20484;-70
2022/07/01 00:08:14;;;;;;;;;;;;;;;20.99;71.77;100170.62;1718394;83;20175;-70
2022/07/01 00:10:40;;;;;;;;;;;;;;;20.98;71.84;100164.91;1717519;82;20696;-70
2022/07/01 00:13:09;;;;;;;;;;;;;;;20.99;71.87;100167.91;1717357;82;20238;-70
2022/07/01 00:15:34;;;;;;;;;;;;;;;20.96;71.92;100162.98;1717657;82;21107;-70
2022/07/01 00:18:00;;;;;;;;;;;;;;;20.94;71.99;100163.21;1711798;82;20337;-70
2022/07/01 00:20:26;;;;;;;;;;;;;;;20.94;72.05;100171.34;1707083;82;20736;-70
2022/07/01 00:22:52;;;;;;;;;;;;;;;20.94;72.09;100171.88;1714693;82;20596;-70
2022/07/01 00:25:18;;;;;;;;;;;;;;;20.88;72.15;100175.56;1705713;83;20543;-70
2022/07/01 00:27:44;;;;;;;;;;;;;;;20.79;72.25;100166.19;1717139;82;22145;-70
2022/07/01 00:30:11;;;;;;;;;;;;;;;20.76;72.35;100166.65;1729195;82;20230;-70
2022/07/01 00:32:36;;;;;;;;;;;;;;;20.75;72.46;100170.45;1714662;82;20156;-70
2022/07/01 00:35:02;;;;;;;;;;;;;;;20.72;72.50;100168.22;1718188;83;20175;-70
2022/07/01 00:37:28;;;;;;;;;;;;;;;20.69;72.59;100152.45;1718262;83;20261;-70
2022/07/01 00:39:54;;;;;;;;;;;;;;;20.67;72.65;100146.43;1718425;83;21123;-70
2022/07/01 00:42:20;;;;;;;;;;;;;;;20.66;72.73;100150.20;1716918;82;20791;-70
2022/07/01 00:44:46;;;;;;;;;;;;;;;20.66;72.80;100141.53;1716807;82;20203;-70
2022/07/01 00:47:13;;;;;;;;;;;;;;;20.66;72.83;100143.42;1723192;82;20151;-70
2022/07/01 00:49:39;;;;;;;;;;;;;;;20.63;72.90;100139.84;1726006;82;20157;-70
2022/07/01 00:52:06;;;;;;;;;;;;;;;20.58;72.96;100137.05;1740749;82;21120;-70
2022/07/01 00:54:32;;;;;;;;;;;;;;;20.54;73.05;100133.17;1687944;83;20436;-70
2022/07/01 00:56:58;;;;;;;;;;;;;;;20.56;73.15;100135.09;1717410;82;20473;-70
2022/07/01 00:59:24;;;;;;;;;;;;;;;20.58;73.18;100131.63;1717857;83;20231;-70
2022/07/01 01:01:50;;;;;;;;;;;;;;;20.55;73.20;100130.77;1714097;82;20233;-70
2022/07/01 01:04:16;;;;;;;;;;;;;;;20.50;73.30;100132.00;1713723;82;21062;-70
2022/07/01 01:06:41;;;;;;;;;;;;;;;20.48;73.34;100134.14;1715965;82;20179;-70
2022/07/01 01:09:07;;;;;;;;;;;;;;;20.43;73.40;100143.81;1699732;83;20291;-70
2022/07/01 01:11:33;;;;;;;;;;;;;;;20.38;73.47;100139.63;1716389;82;20219;-70
2022/07/01 01:13:59;;;;;;;;;;;;;;;20.38;73.53;100143.70;1718252;83;20242;-70
2022/07/01 01:16:25;;;;;;;;;;;;;;;20.39;73.57;100147.23;1718141;83;21083;-70
2022/07/01 01:18:51;;;;;;;;;;;;;;;20.40;73.63;100151.59;1727295;82;20186;-70
2022/07/01 01:21:17;;;;;;;;;;;;;;;20.39;73.68;100153.48;1730445;82;20271;-70
2022/07/01 01:23:44;;;;;;;;;;;;;;;20.37;73.72;100157.50;1717451;82;20201;-70
2022/07/01 01:26:21;;;;;;;;;;;;;;;20.33;73.78;100159.86;1717850;83;20134;-70
2022/07/01 01:28:48;;;;;;;;;;;;;;;20.33;73.85;100164.45;1718362;82;21795;-70
2022/07/01 01:31:14;;;;;;;;;;;;;;;20.29;73.90;100165.46;1717927;82;20630;-70
2022/07/01 01:33:40;;;;;;;;;;;;;;;20.24;73.96;100158.53;1718089;82;20461;-70
2022/07/01 01:36:06;;;;;;;;;;;;;;;20.25;74.05;100156.66;1714787;82;20157;-70
2022/07/01 01:38:36;;;;;;;;;;;;;;;20.21;74.08;100160.38;1715268;83;20203;-70
2022/07/01 01:41:05;;;;;;;;;;;;;;;20.18;74.15;100151.91;1717914;83;21065;-70
2022/07/01 01:43:34;;;;;;;;;;;;;;;20.16;74.23;100153.48;1717392;82;20470;-70
2022/07/01 01:46:01;;;;;;;;;;;;;;;20.18;74.30;100151.91;1696033;82;20193;-70
2022/07/01 01:48:26;;;;;;;;;;;;;;;20.18;74.36;100147.31;1712165;82;20169;-70
2022/07/01 01:50:52;;;;;;;;;;;;;;;20.17;74.40;100148.37;1714047;82;20207;-70
2022/07/01 01:53:18;;;;;;;;;;;;;;;20.12;74.42;100145.56;1707619;82;21077;-70
2022/07/01 01:55:44;;;;;;;;;;;;;;;20.12;74.51;100146.09;1713990;82;20199;-70
2022/07/01 01:58:09;;;;;;;;;;;;;;;20.06;74.55;100149.73;1713936;82;20171;-70
2022/07/01 02:00:35;;;;;;;;;;;;;;;20.03;74.65;100151.04;1713014;82;20497;-70
2022/07/01 02:03:01;;;;;;;;;;;;;;;19.99;74.66;100152.57;1713952;82;20168;-70
2022/07/01 02:05:27;;;;;;;;;;;;;;;19.94;74.70;100148.41;1714066;82;21165;-70
2022/07/01 02:07:53;;;;;;;;;;;;;;;19.92;74.80;100149.16;1713781;82;20803;-70
2022/07/01 02:10:20;;;;;;;;;;;;;;;19.89;74.89;100144.22;1708235;83;20487;-70
2022/07/01 02:12:47;;;;;;;;;;;;;;;19.93;74.95;100153.52;1712190;82;20500;-70
2022/07/01 02:15:12;;;;;;;;;;;;;;;19.92;75.00;100154.58;1703919;82;20476;-71
2022/07/01 02:17:38;;;;;;;;;;;;;;;19.89;75.07;100149.64;1703070;83;21110;-70
2022/07/01 02:20:05;;;;;;;;;;;;;;;19.86;75.10;100157.71;1703688;82;20290;-70
2022/07/01 02:22:31;;;;;;;;;;;;;;;19.88;75.15;100154.23;1704481;82;20197;-70
2022/07/01 02:24:57;;;;;;;;;;;;;;;19.90;75.20;100158.06;1702718;82;20251;-70
2022/07/01 02:27:23;;;;;;;;;;;;;;;19.86;75.20;100158.23;1703676;82;20192;-70
2022/07/01 02:29:48;;;;;;;;;;;;;;;19.84;75.29;100161.16;1703889;82;21141;-70
2022/07/01 02:32:14;;;;;;;;;;;;;;;19.88;75.35;100158.81;1703884;82;20302;-70
2022/07/01 02:34:40;;;;;;;;;;;;;;;19.88;75.36;100156.11;1712373;82;20271;-70
2022/07/01 02:37:06;;;;;;;;;;;;;;;19.87;75.42;100158.02;1710088;82;20542;-70
2022/07/01 02:39:34;;;;;;;;;;;;;;;19.86;75.43;100158.23;1709767;82;20736;-70
2022/07/01 02:44:44;;;;;;;;;;;;;;;19.83;75.53;100161.42;1713521;83;20169;-70
2022/07/01 02:47:11;;;;;;;;;;;;;;;19.83;75.58;100158.72;1708711;82;20724;-70
2022/07/01 02:49:39;;;;;;;;;;;;;;;19.85;75.64;100157.94;1706360;82;20549;-70
2022/07/01 02:52:05;;;;;;;;;;;;;;;19.87;75.68;100162.59;1708273;83;20146;-70
2022/07/01 02:54:31;;;;;;;;;;;;;;;19.90;75.73;100161.59;1707502;82;21132;-70
2022/07/01 02:56:57;;;;;;;;;;;;;;;19.95;75.76;100167.63;1708150;84;20184;-70
2022/07/01 02:59:22;;;;;;;;;;;;;;;19.97;75.78;100152.00;1706839;82;20255;-70
2022/07/01 03:01:48;;;;;;;;;;;;;;;19.97;75.81;100147.94;1707233;82;21324;-70
2022/07/01 03:04:14;;;;;;;;;;;;;;;19.94;75.77;100156.53;1704835;82;20177;-70
2022/07/01 03:06:41;;;;;;;;;;;;;;;19.90;75.85;100152.65;1707568;82;21115;-70
2022/07/01 03:09:06;;;;;;;;;;;;;;;19.91;75.93;100152.95;1707556;82;20145;-70
2022/07/01 03:11:32;;;;;;;;;;;;;;;19.94;75.99;100150.59;1708216;84;20263;-70
2022/07/01 03:13:58;;;;;;;;;;;;;;;19.95;76.02;100152.22;1707459;82;20708;-70
2022/07/01 03:16:24;;;;;;;;;;;;;;;19.94;76.02;100153.30;1707794;83;20307;-70
2022/07/01 03:18:50;;;;;;;;;;;;;;;19.92;76.09;100149.98;1705005;82;21064;-70
2022/07/01 03:21:15;;;;;;;;;;;;;;;19.92;76.13;100147.28;1707760;82;20243;-70
2022/07/01 03:23:41;;;;;;;;;;;;;;;19.97;76.18;100149.29;1707484;82;20219;-70
2022/07/01 03:26:07;;;;;;;;;;;;;;;20.04;76.21;100146.45;1708080;83;20283;-70
2022/07/01 03:28:34;;;;;;;;;;;;;;;20.08;76.21;100148.98;1706292;82;20255;-70
2022/07/01 03:31:01;;;;;;;;;;;;;;;20.11;76.23;100152.03;1697781;82;21021;-70
2022/07/01 03:33:27;;;;;;;;;;;;;;;20.27;76.36;100152.67;1700317;83;20161;-70
2022/07/01 03:35:53;;;;;;;;;;;;;;;20.63;76.51;100142.55;1709167;82;20174;-70
2022/07/01 03:38:19;;;;;;;;;;;;;;;21.11;76.49;100153.77;1692447;83;20766;-70
2022/07/01 03:40:45;;;;;;;;;;;;;;;21.56;76.30;100148.84;1704394;82;20560;-70
2022/07/01 03:43:10;;;;;;;;;;;;;;;21.95;76.10;100154.63;1703839;82;21620;-70
2022/07/01 03:45:36;;;;;;;;;;;;;;;22.37;75.96;100151.66;1706792;83;20192;-71
2022/07/01 03:48:02;;;;;;;;;;;;;;;22.88;75.70;100145.45;1720384;82;20176;-71
2022/07/01 03:50:28;;;;;;;;;;;;;;;23.24;75.21;100151.52;1720480;82;20223;-71
2022/07/01 03:55:38;;;;;;;;;;;;;;;23.73;74.99;100140.48;1721203;82;22687;-70
2022/07/01 03:58:04;;;;;;;;;;;;;;;23.97;74.51;100134.09;1721029;82;20215;-71
2022/07/01 04:00:33;;;;;;;;;;;;;;;24.36;74.24;100145.77;1720592;82;20199;-71
2022/07/01 04:02:59;;;;;;;;;;;;;;;24.69;73.74;100145.06;1721223;82;21076;-71
2022/07/01 04:05:24;;;;;;;;;;;;;;;24.89;73.13;100142.41;1721283;82;20163;-71
2022/07/01 04:07:50;;;;;;;;;;;;;;;24.56;72.63;100148.31;1720741;82;21785;-70
2022/07/01 04:10:16;;;;;;;;;;;;;;;24.73;72.74;100146.17;1693633;82;20191;-71
2022/07/01 04:12:42;;;;;;;;;;;;;;;24.95;72.32;100141.32;1721202;82;20187;-71
2022/07/01 04:15:08;;;;;;;;;;;;;;;24.93;72.08;100139.95;1721165;82;20449;-71
2022/07/01 04:17:34;;;;;;;;;;;;;;;24.93;71.91;100138.59;1720342;82;20451;-71
2022/07/01 04:20:00;;;;;;;;;;;;;;;24.79;71.33;100132.81;1721227;82;22325;-71
2022/07/01 04:22:38;;;;;;;;;;;;;;;24.32;71.09;100137.02;1721259;82;20199;-71
2022/07/01 04:25:04;;;;;;;;;;;;;;;23.99;71.33;100143.66;1720859;82;20428;-70
2022/07/01 04:27:31;;;;;;;;;;;;;;;23.98;71.25;100142.01;1719287;82;20503;-71
2022/07/01 04:29:57;;;;;;;;;;;;;;;23.83;71.08;100148.72;1721112;83;20160;-71
2022/07/01 04:32:23;;;;;;;;;;;;;;;23.56;71.08;100142.02;1700825;82;21830;-71
2022/07/01 04:34:50;;;;;;;;;;;;;;;23.44;71.14;100145.98;1720038;82;20179;-71
2022/07/01 04:37:15;;;;;;;;;;;;;;;23.38;71.21;100150.00;1720650;82;20161;-71
2022/07/01 04:39:41;;;;;;;;;;;;;;;23.36;71.19;100152.15;1721101;82;20959;-71
2022/07/01 04:42:07;;;;;;;;;;;;;;;23.54;71.30;100148.81;1721120;82;20187;-71
2022/07/01 04:44:34;;;;;;;;;;;;;;;23.55;71.26;100143.62;1719888;82;21867;-71
2022/07/01 04:47:00;;;;;;;;;;;;;;;23.49;71.36;100140.59;1714673;82;20153;-71
2022/07/01 04:49:27;;;;;;;;;;;;;;;23.58;71.34;100139.01;1706617;82;20173;-70
2022/07/01 04:51:53;;;;;;;;;;;;;;;23.49;71.31;100144.14;1707495;82;21260;-71
2022/07/01 04:54:19;;;;;;;;;;;;;;;23.49;71.31;100144.67;1707591;82;20212;-71
2022/07/01 04:56:44;;;;;;;;;;;;;;;23.54;71.34;100148.81;1731248;81;22377;-71
2022/07/01 04:59:11;;;;;;;;;;;;;;;23.66;71.34;100148.06;1705886;82;20282;-71
2022/07/01 05:01:37;;;;;;;;;;;;;;;24.12;71.32;100155.98;1708936;83;20197;-71
2022/07/01 05:04:03;;;;;;;;;;;;;;;24.72;71.18;100150.80;1683161;84;20699;-71
2022/07/01 05:06:29;;;;;;;;;;;;;;;25.19;70.97;100141.07;1727252;81;20245;-71
2022/07/01 05:08:55;;;;;;;;;;;;;;;25.55;70.70;100143.83;1730947;81;21844;-71
2022/07/01 05:11:21;;;;;;;;;;;;;;;25.98;70.45;100143.77;1729199;81;20096;-71
2022/07/01 05:13:47;;;;;;;;;;;;;;;25.98;70.15;100142.40;1730867;82;20268;-71
2022/07/01 05:16:13;;;;;;;;;;;;;;;25.85;69.87;100142.44;1733144;81;20675;-71
2022/07/01 05:24:07;;;;;;;;;;;;;;;25.56;69.32;100147.67;1720274;81;20925;-71
2022/07/01 05:26:33;;;;;;;;;;;;;;;25.69;69.22;100136.72;1731441;81;20163;-71
2022/07/01 05:28:59;;;;;;;;;;;;;;;25.90;68.99;100136.95;1707003;82;20407;-71
2022/07/01 05:31:25;;;;;;;;;;;;;;;26.05;68.81;100138.28;1694667;83;20835;-71
2022/07/01 05:33:51;;;;;;;;;;;;;;;26.41;68.67;100136.27;1696447;83;22037;-71
2022/07/01 05:36:17;;;;;;;;;;;;;;;26.90;68.46;100139.04;1718019;83;20782;-71
2022/07/01 05:38:43;;;;;;;;;;;;;;;27.24;68.09;100134.41;1718141;82;20461;-71
2022/07/01 05:41:08;;;;;;;;;;;;;;;27.60;67.82;100134.12;1718031;82;20591;-72
2022/07/01 05:43:34;;;;;;;;;;;;;;;27.92;67.48;100132.98;1718147;83;20251;-71
2022/07/01 05:46:00;;;;;;;;;;;;;;;28.11;66.98;100129.77;1718042;83;21788;-72
2022/07/01 05:48:26;;;;;;;;;;;;;;;28.11;66.54;100128.39;1735741;82;20994;-72
2022/07/01 05:50:53;;;;;;;;;;;;;;;28.07;66.22;100135.59;1693520;83;20656;-72
2022/07/01 05:53:19;;;;;;;;;;;;;;;28.02;66.02;100130.67;1702104;82;20402;-72
2022/07/01 05:55:44;;;;;;;;;;;;;;;28.20;65.71;100124.47;1703705;83;20879;-72
2022/07/01 05:58:10;;;;;;;;;;;;;;;28.46;65.48;100124.97;1715776;82;22491;-72
2022/07/01 06:00:37;;;;;;;;;;;;;;;28.76;65.05;100128.69;1713853;82;20255;-72
2022/07/01 06:03:03;;;;;;;;;;;;;;;28.93;64.71;100126.78;1715075;82;20189;-72
2022/07/01 06:05:30;;;;;;;;;;;;;;;29.15;64.49;100126.45;1721059;82;20450;-72
2022/07/01 06:07:57;;;;;;;;;;;;;;;29.42;64.11;100133.98;1720090;82;20178;-72
2022/07/01 06:10:22;;;;;;;;;;;;;;;29.57;63.57;100128.78;1715386;82;21807;-72
2022/07/01 06:12:48;;;;;;;;;;;;;;;29.76;63.07;100137.80;1715477;82;20221;-72
2022/07/01 06:15:14;;;;;;;;;;;;;;;29.84;62.51;100135.73;1715708;82;20262;-72
2022/07/01 06:17:40;;;;;;;;;;;;;;;29.94;61.96;100127.88;1715811;82;20452;-72
2022/07/01 06:20:07;;;;;;;;;;;;;;;29.93;61.25;100124.86;1714071;82;20168;-72
2022/07/01 06:22:33;;;;;;;;;;;;;;;29.82;60.47;100126.95;1715813;83;22595;-72
2022/07/01 06:25:00;;;;;;;;;;;;;;;29.74;59.87;100127.09;1715073;82;20196;-72
2022/07/01 06:27:26;;;;;;;;;;;;;;;29.54;58.98;100128.02;1715881;83;20172;-72
2022/07/01 06:29:52;;;;;;;;;;;;;;;29.50;58.51;100126.98;1714447;82;20472;-72
2022/07/01 06:32:17;;;;;;;;;;;;;;;29.65;58.21;100120.67;1715862;82;20167;-72
2022/07/01 06:34:44;;;;;;;;;;;;;;;29.85;57.78;100126.38;1715512;83;22669;-72
2022/07/01 06:37:10;;;;;;;;;;;;;;;30.14;57.40;100125.53;1715647;82;20191;-72
2022/07/01 06:39:35;;;;;;;;;;;;;;;30.14;56.95;100121.41;1713662;82;20279;-72
2022/07/01 06:42:01;;;;;;;;;;;;;;;30.23;56.75;100118.18;1722248;82;20418;-72
2022/07/01 06:44:27;;;;;;;;;;;;;;;30.48;56.41;100113.29;1715050;82;20176;-72
2022/07/01 06:46:53;;;;;;;;;;;;;;;30.34;55.86;100113.84;1712497;82;21812;-73
2022/07/01 06:49:19;;;;;;;;;;;;;;;30.20;55.44;100114.67;1690875;82;20246;-72
2022/07/01 06:51:45;;;;;;;;;;;;;;;30.13;55.14;100105.20;1707074;84;20708;-72
2022/07/01 06:54:10;;;;;;;;;;;;;;;30.19;54.88;100104.78;1702681;82;20499;-72
2022/07/01 06:56:36;;;;;;;;;;;;;;;30.31;54.67;100098.77;1703943;83;20231;-72
2022/07/01 06:59:02;;;;;;;;;;;;;;;30.48;54.42;100097.59;1707737;82;21864;-72
2022/07/01 07:01:28;;;;;;;;;;;;;;;30.58;54.11;100095.16;1705530;82;21113;-72
2022/07/01 07:03:54;;;;;;;;;;;;;;;30.54;53.82;100086.71;1702374;82;20192;-72
2022/07/01 07:06:21;;;;;;;;;;;;;;;30.65;53.56;100088.67;1696956;82;20431;-72
2022/07/01 07:08:47;;;;;;;;;;;;;;;30.71;53.32;100080.57;1704436;83;20425;-72
2022/07/01 07:11:14;;;;;;;;;;;;;;;30.85;53.08;100089.60;1702141;82;21815;-76
2022/07/01 07:13:41;;;;;;;;;;;;;;;30.72;52.79;100084.93;1701538;82;20224;-70
2022/07/01 07:16:07;;;;;;;;;;;;;;;30.81;52.73;100088.59;1700632;82;20208;-70
2022/07/01 07:18:33;;;;;;;;;;;;;;;30.65;52.49;100089.49;1698699;82;20475;-70
2022/07/01 07:20:58;;;;;;;;;;;;;;;30.48;52.52;100092.64;1706965;82;20768;-73
2022/07/01 07:23:24;;;;;;;;;;;;;;;30.77;52.43;100091.70;1703357;82;22586;-72
2022/07/01 07:25:50;;;;;;;;;;;;;;;30.58;52.08;100081.40;1703359;83;20199;-72
2022/07/01 07:28:16;;;;;;;;;;;;;;;30.45;51.93;100083.63;1696710;82;20305;-72
2022/07/01 07:30:42;;;;;;;;;;;;;;;30.39;51.96;100076.03;1704449;82;20519;-72
2022/07/01 07:33:08;;;;;;;;;;;;;;;30.62;51.90;100085.16;1707492;82;20168;-72
2022/07/01 07:35:34;;;;;;;;;;;;;;;30.86;51.74;100081.56;1696776;82;21813;-72
2022/07/01 07:37:59;;;;;;;;;;;;;;;31.03;51.46;100077.63;1704554;83;20797;-73
2022/07/01 07:40:25;;;;;;;;;;;;;;;31.10;51.17;100077.97;1702070;83;20226;-73
2022/07/01 07:42:51;;;;;;;;;;;;;;;30.99;51.12;100075.80;1706593;83;20501;-73
2022/07/01 07:45:17;;;;;;;;;;;;;;;31.11;51.10;100082.36;1703085;82;20240;-73
2022/07/01 07:47:44;;;;;;;;;;;;;;;31.08;50.78;100078.04;1698612;82;21736;-73
2022/07/01 07:50:10;;;;;;;;;;;;;;;31.26;50.75;100085.86;1713026;82;20132;-72
2022/07/01 07:52:37;;;;;;;;;;;;;;;31.15;50.36;100081.98;1717021;82;20115;-73
2022/07/01 07:55:03;;;;;;;;;;;;;;;31.29;50.37;100087.98;1717393;82;21053;-73
2022/07/01 07:57:30;;;;;;;;;;;;;;;31.38;50.21;100083.36;1717240;83;20439;-73
2022/07/01 07:59:56;;;;;;;;;;;;;;;31.57;50.14;100085.34;1702865;82;22638;-72
2022/07/01 08:02:21;;;;;;;;;;;;;;;31.73;49.90;100093.47;1716034;82;20271;-73
2022/07/01 08:04:47;;;;;;;;;;;;;;;31.70;49.77;100088.59;1714342;82;20207;-73
2022/07/01 08:07:14;;;;;;;;;;;;;;;31.85;49.68;100088.15;1722562;82;20442;-73
2022/07/01 08:09:45;;;;;;;;;;;;;;;32.10;49.58;100081.95;1716757;82;20808;-73
2022/07/01 08:12:07;;;;;;;;;;;;;;;32.30;49.34;100090.77;1715327;82;21616;-72
2022/07/01 08:14:33;;;;;;;;;;;;;;;32.54;49.12;100085.61;1712594;82;20225;-73
2022/07/01 08:16:59;;;;;;;;;;;;;;;32.49;48.83;100087.14;1716426;83;21482;-72
2022/07/01 08:19:25;;;;;;;;;;;;;;;32.47;48.65;100086.66;1715779;82;20485;-73
2022/07/01 08:21:51;;;;;;;;;;;;;;;32.54;48.59;100086.43;1704016;82;20179;-78
2022/07/01 08:24:17;;;;;;;;;;;;;;;32.52;48.40;100085.11;1702363;82;21852;-78
2022/07/01 08:26:42;;;;;;;;;;;;;;;32.65;48.42;100086.96;1717639;82;20633;-78
2022/07/01 08:29:08;;;;;;;;;;;;;;;32.62;48.42;100084.25;1717978;83;20218;-78
2022/07/01 08:31:34;;;;;;;;;;;;;;;32.75;48.46;100086.64;1718131;82;20472;-78
2022/07/01 08:34:02;;;;;;;;;;;;;;;32.73;48.24;100084.75;1718182;83;20159;-78
2022/07/01 08:36:27;;;;;;;;;;;;;;;32.75;48.05;100088.58;1711694;82;21861;-78
2022/07/01 08:38:53;;;;;;;;;;;;;;;32.90;47.86;100086.12;1717857;83;20850;-78
2022/07/01 08:41:19;;;;;;;;;;;;;;;32.90;47.62;100097.18;1716968;82;20274;-78
2022/07/01 08:43:46;;;;;;;;;;;;;;;32.81;47.62;100090.86;1717694;82;20429;-78
2022/07/01 08:46:12;;;;;;;;;;;;;;;32.64;47.54;100082.56;1718001;82;20141;-78
2022/07/01 08:48:43;;;;;;;;;;;;;;;32.37;47.51;100089.14;1738305;82;21788;-78
2022/07/01 08:51:09;;;;;;;;;;;;;;;32.01;47.49;100094.88;1691278;83;20473;-78
2022/07/01 08:53:35;;;;;;;;;;;;;;;32.11;47.70;100091.86;1715903;82;20176;-78
2022/07/01 08:58:50;;;;;;;;;;;;;;;32.21;47.60;100082.46;1716281;82;20134;-78
2022/07/01 09:01:21;;;;;;;;;;;;;;;32.55;47.45;100081.70;1686528;83;22703;-78
2022/07/01 09:03:47;;;;;;;;;;;;;;;32.69;47.22;100083.77;1715864;82;20173;-78
2022/07/01 09:06:15;;;;;;;;;;;;;;;32.77;47.10;100082.97;1716105;82;20159;-78
2022/07/01 09:08:44;;;;;;;;;;;;;;;32.87;46.91;100084.02;1716036;83;20388;-78
2022/07/01 09:11:15;;;;;;;;;;;;;;;32.89;46.79;100083.70;1716096;82;20207;-78
2022/07/01 09:13:41;;;;;;;;;;;;;;;32.94;46.76;100084.34;1716208;82;21719;-78
2022/07/01 09:16:11;;;;;;;;;;;;;;;32.94;46.69;100084.34;1716286;82;20568;-78
2022/07/01 09:18:37;;;;;;;;;;;;;;;32.74;46.47;100086.38;1683838;83;20168;-78
2022/07/01 09:21:07;;;;;;;;;;;;;;;32.50;46.43;100084.63;1715902;82;20534;-78
2022/07/01 09:23:33;;;;;;;;;;;;;;;32.62;46.59;100087.58;1715965;82;20165;-78
2022/07/01 09:25:59;;;;;;;;;;;;;;;32.71;46.40;100080.13;1716260;82;21835;-78
2022/07/01 09:28:26;;;;;;;;;;;;;;;32.64;46.39;100080.62;1716010;82;20161;-78
2022/07/01 09:30:54;;;;;;;;;;;;;;;32.61;46.33;100083.22;1716028;82;20156;-78
2022/07/01 09:33:22;;;;;;;;;;;;;;;32.56;46.27;100079.19;1716219;83;20460;-78
2022/07/01 09:35:49;;;;;;;;;;;;;;;32.60;46.21;100076.06;1715908;83;20152;-78
2022/07/01 09:38:16;;;;;;;;;;;;;;;32.42;45.94;100068.86;1716121;82;22474;-78
2022/07/01 09:40:53;;;;;;;;;;;;;;;32.35;46.09;100069.34;1715975;82;20809;-78
2022/07/01 09:43:21;;;;;;;;;;;;;;;32.54;46.02;100066.28;1716113;82;20779;-78
2022/07/01 09:46:02;;;;;;;;;;;;;;;32.54;45.94;100066.28;1716073;82;21072;-78
2022/07/01 09:48:37;;;;;;;;;;;;;;;32.52;45.85;100068.54;1712806;82;20168;-78
2022/07/01 09:51:04;;;;;;;;;;;;;;;32.46;45.78;100061.56;1731473;82;21863;-78
2022/07/01 09:53:30;;;;;;;;;;;;;;;32.71;45.97;100055.27;1696325;84;20205;-78
2022/07/01 09:55:56;;;;;;;;;;;;;;;32.81;45.79;100046.65;1696354;84;20262;-78
2022/07/01 09:58:22;;;;;;;;;;;;;;;32.83;45.75;100056.80;1696269;84;20476;-78
2022/07/01 10:00:48;;;;;;;;;;;;;;;32.91;45.63;100052.41;1696298;84;20840;-78
2022/07/01 10:03:15;;;;;;;;;;;;;;;32.88;45.59;100053.87;1718440;83;21840;-78
2022/07/01 10:05:47;;;;;;;;;;;;;;;32.90;45.50;100047.44;1662859;84;20441;-78
2022/07/01 10:08:38;;;;;;;;;;;;;;;32.87;45.41;100048.09;1685974;83;20168;-78
2022/07/01 10:11:24;;;;;;;;;;;;;;;32.79;45.42;100053.65;1623706;87;20350;-78
2022/07/01 10:13:50;;;;;;;;;;;;;;;32.71;45.30;100056.66;1624107;86;20194;-78
2022/07/01 10:16:16;;;;;;;;;;;;;;;32.67;45.26;100050.15;1712049;81;21849;-78
2022/07/01 10:18:42;;;;;;;;;;;;;;;32.61;45.34;100044.55;1768153;81;20133;-78
2022/07/01 10:21:08;;;;;;;;;;;;;;;32.69;45.40;100034.64;1708646;82;20280;-78
2022/07/01 10:23:41;;;;;;;;;;;;;;;32.80;45.34;100025.67;1759794;80;21044;-78
2022/07/01 10:26:08;;;;;;;;;;;;;;;32.81;45.25;100025.11;1751300;80;20162;-78
2022/07/01 10:28:45;;;;;;;;;;;;;;;32.80;45.33;100020.16;1762794;81;21851;-78
2022/07/01 10:31:21;;;;;;;;;;;;;;;32.93;45.36;100016.42;1768153;80;20685;-78
2022/07/01 10:33:43;;;;;;;;;;;;;;;32.82;45.35;100013.75;1762589;80;20140;-78
2022/07/01 10:36:11;;;;;;;;;;;;;;;32.92;45.51;100016.17;1730974;82;20475;-78
2022/07/01 10:39:06;;;;;;;;;;;;;;;33.02;45.32;100008.91;1696416;83;20213;-78
2022/07/01 10:41:33;;;;;;;;;;;;;;;32.97;45.21;100006.30;1696378;84;21832;-78
2022/07/01 10:44:02;;;;;;;;;;;;;;;32.89;45.19;100007.16;1718147;83;20157;-78
2022/07/01 10:46:44;;;;;;;;;;;;;;;32.96;45.25;100007.47;1718505;82;20134;-78
2022/07/01 10:49:20;;;;;;;;;;;;;;;33.11;45.20;100004.19;1718069;83;20424;-78
2022/07/01 10:51:48;;;;;;;;;;;;;;;33.29;45.20;100013.81;1718482;83;20208;-79
2022/07/01 10:54:39;;;;;;;;;;;;;;;33.00;44.88;100019.50;1718025;83;21889;-78
2022/07/01 10:57:24;;;;;;;;;;;;;;;32.68;45.16;100022.78;1709172;82;20184;-78
2022/07/01 10:59:53;;;;;;;;;;;;;;;32.53;45.22;100026.80;1717150;82;20393;-78
2022/07/01 11:02:25;;;;;;;;;;;;;;;32.53;45.40;100032.33;1692999;83;21052;-78
2022/07/01 11:04:57;;;;;;;;;;;;;;;32.66;45.41;100025.85;1711885;83;20161;-78
2022/07/01 11:07:27;;;;;;;;;;;;;;;32.75;45.37;100025.86;1716646;83;21999;-78
2022/07/01 11:09:53;;;;;;;;;;;;;;;32.56;45.30;100035.81;1718176;83;20504;-78
2022/07/01 11:12:21;;;;;;;;;;;;;;;32.44;45.49;100035.63;1718447;83;20148;-78
2022/07/01 11:14:47;;;;;;;;;;;;;;;32.39;45.50;100043.28;1718229;83;21115;-78
2022/07/01 11:17:13;;;;;;;;;;;;;;;32.26;45.58;100040.91;1670531;84;20263;-78
2022/07/01 11:19:39;;;;;;;;;;;;;;;32.29;45.71;100027.03;1702294;83;21852;-78
2022/07/01 11:22:05;;;;;;;;;;;;;;;32.24;45.84;100032.12;1718293;82;20795;-78
2022/07/01 11:24:31;;;;;;;;;;;;;;;32.48;46.05;100030.28;1718319;83;20416;-78
2022/07/01 11:27:08;;;;;;;;;;;;;;;32.61;45.68;100026.59;1716982;83;20457;-78
2022/07/01 11:29:34;;;;;;;;;;;;;;;32.50;45.69;100018.36;1713628;83;20153;-79
2022/07/01 11:31:59;;;;;;;;;;;;;;;32.55;45.71;100007.13;1717890;83;21767;-78
2022/07/01 11:34:28;;;;;;;;;;;;;;;32.60;45.68;100009.77;1718262;83;20179;-78
2022/07/01 11:39:41;;;;;;;;;;;;;;;32.59;45.58;100001.23;1718138;83;20397;-78
2022/07/01 11:42:06;;;;;;;;;;;;;;;32.58;45.69;100000.42;1718425;83;20473;-80
2022/07/01 11:44:41;;;;;;;;;;;;;;;32.47;45.86;100003.26;1717949;83;21793;-79
2022/07/01 11:47:09;;;;;;;;;;;;;;;32.29;45.95;100007.70;1736966;82;20179;-79
2022/07/01 11:49:36;;;;;;;;;;;;;;;32.09;46.04;100015.45;1704117;83;20161;-79
2022/07/01 11:52:07;;;;;;;;;;;;;;;31.93;46.05;100008.75;1706424;82;20621;-79
2022/07/01 11:54:37;;;;;;;;;;;;;;;31.74;45.99;100000.52;1705508;83;20185;-79
2022/07/01 11:57:16;;;;;;;;;;;;;;;31.66;45.97;99996.59;1723651;83;22481;-79
2022/07/01 11:59:42;;;;;;;;;;;;;;;31.70;45.99;99989.31;1723544;82;20208;-79
2022/07/01 12:02:09;;;;;;;;;;;;;;;31.75;45.95;99989.14;1723587;82;20758;-79
2022/07/01 12:04:35;;;;;;;;;;;;;;;31.67;45.89;99992.67;1723771;83;21050;-79
2022/07/01 12:07:00;;;;;;;;;;;;;;;31.68;45.89;99990.17;1723689;83;20246;-79
2022/07/01 12:09:26;;;;;;;;;;;;;;;31.68;45.93;100005.34;1723725;83;21851;-79
2022/07/01 12:11:52;;;;;;;;;;;;;;;31.67;45.93;100017.50;1723369;82;20187;-79
2022/07/01 12:14:33;;;;;;;;;;;;;;;31.54;45.95;100024.76;1723696;82;20793;-79
2022/07/01 12:16:59;;;;;;;;;;;;;;;31.48;46.00;100019.67;1722080;83;20460;-79
2022/07/01 12:19:41;;;;;;;;;;;;;;;31.31;45.92;100022.35;1723461;82;20161;-79
2022/07/01 12:22:15;;;;;;;;;;;;;;;31.29;46.06;100008.05;1723679;82;21851;-79
2022/07/01 12:24:41;;;;;;;;;;;;;;;31.18;46.19;100006.95;1722585;82;20649;-79
2022/07/01 12:27:08;;;;;;;;;;;;;;;31.11;46.29;100007.97;1723598;82;20180;-78
2022/07/01 12:29:46;;;;;;;;;;;;;;;31.06;46.29;100012.25;1698715;83;20456;-79
2022/07/01 12:32:14;;;;;;;;;;;;;;;30.97;46.34;100018.25;1720542;83;20144;-78
2022/07/01 12:34:44;;;;;;;;;;;;;;;30.93;46.45;100028.23;1723757;82;21696;-78
2022/07/01 12:37:26;;;;;;;;;;;;;;;30.81;46.46;100041.77;1722482;83;20234;-79
2022/07/01 12:39:54;;;;;;;;;;;;;;;30.62;46.56;100046.63;1723677;83;20160;-79
2022/07/01 12:42:29;;;;;;;;;;;;;;;30.46;46.75;100061.88;1723692;82;20458;-78
2022/07/01 12:44:58;;;;;;;;;;;;;;;30.30;46.92;100067.41;1723582;82;20163;-79
2022/07/01 12:47:29;;;;;;;;;;;;;;;30.11;47.13;100064.25;1723763;82;21846;-79
2022/07/01 12:50:19;;;;;;;;;;;;;;;29.95;47.32;100068.42;1719883;83;20813;-78
2022/07/01 12:53:03;;;;;;;;;;;;;;;29.81;47.51;100078.57;1718220;82;20164;-79
2022/07/01 12:55:40;;;;;;;;;;;;;;;29.63;47.76;100069.84;1718406;83;21060;-78